Home   Weather   United Kingdom   Oxford   Past weeks
Flag for United Kingdom

Past Weather in Oxford, England, United Kingdom — Yesterday and Last 2 Weeks

Currently: 19 °F. Clear. (Weather station: Benson, United Kingdom). See more current weather

Past Weather in Oxford — Graph

°F

Oxford Temperature Yesterday

Maximum temperature yesterday: 48 °F (at 2:50 pm)
Minimum temperature yesterday: 19 °F (at 6:50 am)
Average temperature yesterday: 31 °F

High & Low Weather Summary for the Past Weeks

 TemperatureHumidityPressure
High54 °F (Jan 31, 12:50 pm)100% (Jan 24, 7:20 am)30.92 "Hg (Jan 24, 7:20 am)
Low18 °F (Jan 24, 3:50 am)53% (Feb 6, 4:50 pm)30.15 "Hg (Jan 30, 12:50 am)
Average39 °F85%30.48 "Hg
* Reported Jan 24 3:20 am — Feb 8 3:20 am, Oxford. Weather by CustomWeather, © 2023

Note: Actual official high and low records may vary slightly from our data, if they occured in-between our weather recording intervals... More about our weather records

Oxford Weather History for the Previous 24 Hours

Scroll right to see more
 ConditionsComfort  
Time TempWeatherWind HumidityBarometerVisibility
3:20 am
Wed, Feb 8
19 °FClear.1 mph93%30.60 "Hg5 mi
2:50 am23 °FIce fog.1 mph100%30.60 "Hg2 mi
2:20 am25 °FClear.1 mph93%30.63 "Hg1 mi
1:50 am23 °FIce fog.1 mph93%30.63 "Hg1 mi
1:20 am23 °FIce fog.1 mph93%30.63 "Hg6 mi
12:50 am23 °FIce fog.1 mph100%30.63 "Hg4 mi
11:20 pm
Tue, Feb 7
25 °FIce fog.2 mph93%30.63 "Hg3 mi
10:50 pm23 °FIce fog.No wind93%30.63 "Hg4 mi
9:50 pm23 °FIce fog.No wind93%30.66 "HgN/A
9:20 pm25 °FCold.No wind86%30.66 "HgN/A
8:50 pm30 °FClear.No wind86%30.66 "HgN/A
8:20 pm30 °FClear.1 mph93%30.66 "HgN/A
7:50 pm32 °FClear.1 mph87%30.66 "HgN/A
7:20 pm32 °FClear.1 mph87%30.66 "HgN/A
6:50 pm32 °FClear.2 mph87%30.66 "Hg10 mi
5:50 pm30 °FClear.5 mph86%30.66 "Hg10 mi
5:20 pm32 °FClear.3 mph75%30.63 "Hg10 mi
4:50 pm41 °FSunny.3 mph66%30.63 "Hg10 mi
4:20 pm45 °FQuite cool.2 mph61%30.63 "HgN/A
3:50 pm45 °FSunny.3 mph61%30.63 "Hg10 mi
3:20 pm46 °FSunny.3 mph57%30.66 "Hg10 mi
2:50 pm48 °FSunny.2 mph58%30.66 "Hg10 mi
2:20 pm46 °FSunny.5 mph62%30.66 "Hg10 mi
1:50 pm46 °FSunny.6 mph66%30.66 "Hg10 mi
1:20 pm46 °FSunny.5 mph66%30.66 "Hg10 mi
12:50 pm45 °FSunny.7 mph76%30.66 "Hg10 mi
11:50 am43 °FSunny.7 mph81%30.69 "Hg10 mi
11:20 am41 °FSunny.3 mph81%30.69 "Hg10 mi
10:50 am39 °FSunny.2 mph81%30.69 "Hg6 mi
10:20 am37 °FChilly.1 mph87%30.69 "HgN/A
9:50 am34 °FSunny.2 mph93%30.66 "Hg6 mi
9:20 am32 °FSunny.3 mph93%30.69 "Hg6 mi
8:50 am28 °FIce fog.3 mph93%30.66 "Hg5 mi
8:20 am23 °FSunny.3 mph93%30.66 "Hg5 mi
7:50 am21 °FSunny.1 mph93%30.66 "Hg5 mi
7:20 am21 °FClear.2 mph93%30.66 "Hg5 mi
6:50 am19 °FClear.1 mph93%30.66 "HgN/A
5:50 am23 °FCold.No wind93%30.66 "HgN/A
5:20 am21 °FCold.1 mph93%30.66 "HgN/A
4:50 am23 °FCold.3 mph93%30.66 "HgN/A
4:20 am21 °FCold.2 mph93%30.66 "HgN/A
Weather by CustomWeather, © 2023

See weather overview